Time;durP1;ratioP1;P1;durP2;ratioP2;P2;SDS_P1;SDS_P2;PMS_P1;PMS_P2;Temp;Humidity;BMP_temperature;BMP_pressure;BME280_temperature;BME280_humidity;BME280_pressure;Samples;Min_cycle;Max_cycle;Signal;HPM_P1;HPM_P2
2021/10/14 00:01:29;;;;;;;;;;;4.90;99.90;;;3.65;100.00;96571.72;10630870;27;1602;-78
2021/10/14 00:06:32;;;;;;;;;;;4.90;99.90;;;3.69;100.00;96568.44;10609311;27;1957;-79
2021/10/14 00:11:34;;;;;;;;;;;5.00;99.90;;;3.80;100.00;96565.09;10613852;27;2252;-78
2021/10/14 00:16:37;;;;;;;;;;;5.10;99.90;;;3.88;100.00;96576.53;10625729;27;1885;-79
2021/10/14 00:21:40;;;;;;;;;;;5.10;99.90;;;3.92;100.00;96575.91;10621613;27;2016;-79
2021/10/14 00:26:43;;;;;;;;;;;5.10;99.90;;;3.90;100.00;96566.50;10600004;27;1927;-79
2021/10/14 00:31:46;;;;;;;;;;;5.20;99.90;;;3.86;100.00;96562.63;10624951;27;1914;-79
2021/10/14 00:36:49;;;;;;;;;;;5.10;99.90;;;3.90;100.00;96563.84;10610603;27;1997;-79
2021/10/14 00:41:52;;;;;;;;;;;5.10;99.90;;;3.83;100.00;96553.25;10624633;27;1938;-79
2021/10/14 00:46:55;;;;;;;;;;;5.10;99.90;;;3.82;100.00;96556.09;10598365;27;1949;-77
2021/10/14 00:51:58;;;;;;;;;;;5.10;99.90;;;3.84;100.00;96549.56;10580930;28;1922;-78
2021/10/14 00:57:00;;;;;;;;;;;5.10;99.90;;;3.90;100.00;96553.22;10594290;27;2054;-80
2021/10/14 01:02:03;;;;;;;;;;;5.10;99.90;;;3.87;100.00;96549.13;10590940;27;1995;-78
2021/10/14 01:07:06;;;;;;;;;;;5.10;99.90;;;3.79;100.00;96550.19;10572664;28;2051;-78
2021/10/14 01:12:09;;;;;;;;;;;5.00;99.90;;;3.69;100.00;96557.81;10574305;28;2074;-81
2021/10/14 01:17:13;;;;;;;;;;;5.00;99.90;;;3.52;100.00;96556.63;10571531;28;2064;-79
2021/10/14 01:22:16;;;;;;;;;;;4.90;99.90;;;3.47;100.00;96551.13;10591436;28;1932;-79
2021/10/14 01:27:19;;;;;;;;;;;4.80;99.90;;;3.38;100.00;96552.41;10573059;28;2089;-80
2021/10/14 01:32:43;;;;;;;;;;;4.70;99.90;;;3.34;100.00;96557.31;10591793;27;1861;-78
2021/10/14 01:37:46;;;;;;;;;;;4.80;99.90;;;3.32;100.00;96547.91;10575804;28;2075;-77
2021/10/14 01:42:49;;;;;;;;;;;4.70;99.90;;;3.36;100.00;96547.28;10594318;28;2048;-79
2021/10/14 01:47:52;;;;;;;;;;;4.60;99.90;;;3.32;100.00;96556.69;10600425;28;2034;-80
2021/10/14 01:52:55;;;;;;;;;;;4.60;99.90;;;3.27;100.00;96553.84;10581698;27;2145;-78
2021/10/14 01:57:58;;;;;;;;;;;4.60;99.90;;;3.20;100.00;96556.53;10591718;28;1995;-78
2021/10/14 02:03:01;;;;;;;;;;;4.60;99.90;;;3.20;100.00;96558.38;10585623;27;2066;-78
2021/10/14 02:08:04;;;;;;;;;;;4.50;99.90;;;3.35;100.00;96550.16;10566450;28;2059;-78
2021/10/14 02:13:07;;;;;;;;;;;4.60;99.90;;;3.39;100.00;96538.09;10598667;28;2035;-78
2021/10/14 02:18:10;;;;;;;;;;;4.70;99.90;;;3.45;100.00;96550.53;10618536;27;2038;-79
2021/10/14 02:23:12;;;;;;;;;;;4.70;99.90;;;3.57;100.00;96553.38;10587987;28;1754;-77
2021/10/14 02:28:16;;;;;;;;;;;4.70;99.90;;;3.63;100.00;96557.84;10587787;28;2066;-79
2021/10/14 02:33:19;;;;;;;;;;;4.80;99.90;;;3.65;100.00;96551.28;10588270;28;2096;-79
2021/10/14 02:38:22;;;;;;;;;;;4.80;99.90;;;3.52;100.00;96553.97;10565930;28;2032;-77
2021/10/14 02:43:25;;;;;;;;;;;4.80;99.90;;;3.56;100.00;96544.53;10581652;28;2039;-78
2021/10/14 02:48:28;;;;;;;;;;;4.80;99.90;;;3.66;100.00;96546.75;10591390;28;2071;-78
2021/10/14 02:53:31;;;;;;;;;;;4.80;99.90;;;3.79;100.00;96546.72;10583275;28;2205;-80
2021/10/14 02:58:34;;;;;;;;;;;4.90;99.90;;;3.79;100.00;96542.19;10590573;28;2130;-78
2021/10/14 03:03:36;;;;;;;;;;;5.00;99.90;;;3.89;100.00;96540.94;10607389;28;1964;-79
2021/10/14 03:08:40;;;;;;;;;;;5.00;99.90;;;4.00;100.00;96548.22;10619216;27;1991;-79
2021/10/14 03:13:43;;;;;;;;;;;5.10;99.90;;;4.05;100.00;96556.41;10598579;27;2070;-78
2021/10/14 03:18:46;;;;;;;;;;;5.10;99.90;;;4.03;100.00;96559.28;10573906;28;2108;-77
2021/10/14 03:23:48;;;;;;;;;;;5.20;99.90;;;4.02;100.00;96557.66;10580054;27;2026;-78
2021/10/14 03:28:53;;;;;;;;;;;5.20;99.90;;;4.16;100.00;96552.25;10577184;28;2087;-79
2021/10/14 03:33:56;;;;;;;;;;;5.20;99.90;;;4.25;100.00;96567.72;10596429;27;1751;-79
2021/10/14 03:38:59;;;;;;;;;;;5.30;99.90;;;4.36;100.00;96573.41;10593857;28;1976;-78
2021/10/14 03:44:02;;;;;;;;;;;5.40;99.90;;;4.40;100.00;96556.00;10591157;28;2020;-78
2021/10/14 03:49:05;;;;;;;;;;;5.50;99.90;;;4.50;100.00;96556.31;10593569;28;2090;-79
2021/10/14 03:54:09;;;;;;;;;;;5.60;99.90;;;4.51;100.00;96557.94;10592918;28;2045;-78
2021/10/14 03:59:12;;;;;;;;;;;5.60;99.90;;;4.54;100.00;96549.53;10571925;27;2096;-78
2021/10/14 04:04:15;;;;;;;;;;;5.70;99.90;;;4.56;100.00;96564.25;10594854;27;2145;-78
2021/10/14 04:09:18;;;;;;;;;;;5.70;99.90;;;4.52;100.00;96556.94;10570386;28;2028;-79
2021/10/14 04:14:21;;;;;;;;;;;5.70;99.90;;;4.59;100.00;96568.34;10592587;28;2043;-78
2021/10/14 04:19:24;;;;;;;;;;;5.70;99.90;;;4.64;100.00;96568.50;10586198;28;2121;-78
2021/10/14 04:24:29;;;;;;;;;;;5.70;99.90;;;4.65;100.00;96562.16;10590492;28;2015;-78
2021/10/14 04:29:32;;;;;;;;;;;5.80;99.90;;;4.66;100.00;96557.66;10590274;27;2117;-78
2021/10/14 04:34:35;;;;;;;;;;;5.80;99.90;;;4.72;100.00;96557.59;10588857;28;2046;-78
2021/10/14 04:39:38;;;;;;;;;;;5.80;99.90;;;4.76;100.00;96550.78;10585545;28;2015;-78
2021/10/14 04:44:41;;;;;;;;;;;5.80;99.90;;;4.78;100.00;96546.06;10593032;28;2027;-78
2021/10/14 04:49:43;;;;;;;;;;;5.90;99.90;;;4.73;100.00;96553.06;10597166;28;2197;-77
2021/10/14 04:54:46;;;;;;;;;;;5.90;99.90;;;4.69;100.00;96552.69;10594001;27;1967;-79
2021/10/14 04:59:50;;;;;;;;;;;5.90;99.90;;;4.69;100.00;96551.88;10597509;28;1876;-77
2021/10/14 05:04:53;;;;;;;;;;;5.80;99.90;;;4.74;100.00;96560.84;10585822;28;2054;-79
2021/10/14 05:09:56;;;;;;;;;;;5.80;99.90;;;4.80;100.00;96565.31;10600265;28;2164;-79
2021/10/14 05:14:58;;;;;;;;;;;5.90;99.90;;;4.83;100.00;96570.19;10585221;28;1912;-79
2021/10/14 05:20:01;;;;;;;;;;;5.90;99.90;;;4.86;100.00;96572.41;10606143;28;2007;-77
2021/10/14 05:25:04;;;;;;;;;;;6.00;99.90;;;4.86;100.00;96561.78;10595769;27;1983;-78
2021/10/14 05:30:07;;;;;;;;;;;6.00;99.90;;;4.95;100.00;96562.28;10588611;27;1999;-78
2021/10/14 05:35:10;;;;;;;;;;;6.00;99.90;;;4.89;100.00;96569.31;10590228;28;1988;-78
2021/10/14 05:40:13;;;;;;;;;;;6.00;99.90;;;4.97;100.00;96580.75;10590364;28;2078;-79
2021/10/14 05:45:16;;;;;;;;;;;6.10;99.90;;;5.01;100.00;96588.06;10569729;28;2063;-78
2021/10/14 05:50:19;;;;;;;;;;;6.10;99.90;;;5.06;100.00;96590.09;10574341;28;1979;-78
2021/10/14 05:55:22;;;;;;;;;;;6.10;99.90;;;5.14;100.00;96597.78;10583229;28;2290;-78
2021/10/14 06:00:25;;;;;;;;;;;6.10;99.90;;;5.26;100.00;96590.72;10581354;28;2078;-77
2021/10/14 06:05:28;;;;;;;;;;;6.20;99.90;;;5.28;100.00;96586.00;10570946;28;2036;-77
2021/10/14 06:10:31;;;;;;;;;;;6.30;99.90;;;5.45;100.00;96598.75;10574010;27;2048;-78
2021/10/14 06:15:34;;;;;;;;;;;6.40;99.90;;;5.59;100.00;96597.56;10571725;28;2024;-79
2021/10/14 06:20:37;;;;;;;;;;;6.50;99.90;;;5.54;100.00;96594.75;10563892;28;1988;-79
2021/10/14 06:25:40;;;;;;;;;;;6.60;99.90;;;5.63;100.00;96612.09;10587249;28;1973;-78
2021/10/14 06:30:43;;;;;;;;;;;6.70;99.90;;;5.82;99.46;96604.91;10573638;28;2066;-76
2021/10/14 06:35:46;;;;;;;;;;;6.80;99.90;;;5.93;98.45;96607.69;10579156;27;2039;-77
2021/10/14 06:40:49;;;;;;;;;;;6.90;99.90;;;5.99;97.56;96610.50;10580449;27;1971;-76
2021/10/14 06:45:52;;;;;;;;;;;6.90;99.90;;;6.06;97.26;96619.22;10578571;27;1972;-78
2021/10/14 06:50:55;;;;;;;;;;;7.00;99.90;;;6.28;95.92;96609.69;10590112;27;2027;-78
2021/10/14 06:55:58;;;;;;;;;;;7.10;99.90;;;6.39;94.15;96605.44;10585129;27;1964;-77
2021/10/14 07:01:01;;;;;;;;;;;7.30;99.90;;;6.77;94.56;96621.94;10580700;28;1971;-77
2021/10/14 07:06:04;;;;;;;;;;;7.40;99.90;;;7.09;92.04;96618.19;10579390;27;2077;-77
2021/10/14 07:11:07;;;;;;;;;;;7.70;99.90;;;7.30;88.62;96620.28;10578329;28;1944;-77
2021/10/14 07:16:10;;;;;;;;;;;8.00;99.90;;;7.62;88.37;96619.91;10574220;28;2114;-77
2021/10/14 07:21:13;;;;;;;;;;;8.20;99.90;;;7.82;87.17;96620.34;10567601;27;2042;-76
2021/10/14 07:26:16;;;;;;;;;;;8.40;99.90;;;7.91;85.85;96607.44;10576017;27;2360;-76
2021/10/14 07:31:19;;;;;;;;;;;8.70;99.90;;;7.99;84.52;96615.09;10576786;27;2431;-76
2021/10/14 07:36:22;;;;;;;;;;;8.80;99.90;;;7.84;86.10;96616.41;10579525;27;2043;-76
2021/10/14 07:41:25;;;;;;;;;;;8.80;99.90;;;7.99;84.65;96613.22;10573239;27;2134;-76
2021/10/14 07:46:28;;;;;;;;;;;8.80;99.90;;;8.16;83.44;96620.53;10587397;27;2042;-77
2021/10/14 07:51:31;;;;;;;;;;;9.00;99.90;;;8.29;83.65;96620.25;10573747;28;2035;-77
2021/10/14 07:56:33;;;;;;;;;;;9.10;99.90;;;8.25;82.49;96608.38;10592779;27;2012;-76
2021/10/14 08:01:38;;;;;;;;;;;9.20;99.90;;;8.36;82.72;96610.25;10588343;27;1956;-77
2021/10/14 08:06:41;;;;;;;;;;;9.30;99.90;;;8.60;80.80;96611.78;10587011;28;2106;-77
2021/10/14 08:11:44;;;;;;;;;;;9.40;99.90;;;8.77;79.54;96614.47;10593522;27;2130;-76
2021/10/14 08:16:47;;;;;;;;;;;9.60;99.90;;;8.77;78.54;96609.13;10589975;27;2082;-77
2021/10/14 08:21:50;;;;;;;;;;;9.70;99.90;;;9.04;78.28;96609.31;10606728;27;1989;-76
2021/10/14 08:26:53;;;;;;;;;;;9.90;99.90;;;9.33;76.29;96614.59;10574187;27;1971;-75
2021/10/14 08:31:56;;;;;;;;;;;10.10;99.90;;;9.54;74.92;96607.66;10589797;27;2035;-76
2021/10/14 08:36:59;;;;;;;;;;;10.30;99.90;;;9.65;74.01;96607.56;10584982;27;2039;-75
2021/10/14 08:42:02;;;;;;;;;;;10.40;99.90;;;10.05;72.19;96611.84;10577245;28;1979;-75
2021/10/14 08:47:05;;;;;;;;;;;10.70;99.90;;;10.36;69.84;96602.31;10570097;28;1944;-76
2021/10/14 08:52:08;;;;;;;;;;;10.90;99.90;;;10.23;70.29;96616.94;10552402;28;2177;-75
2021/10/14 08:57:11;;;;;;;;;;;10.90;99.90;;;10.13;70.52;96608.75;10573770;28;1983;-75
2021/10/14 09:02:15;;;;;;;;;;;11.00;99.90;;;10.15;68.74;96617.34;10572373;28;1999;-74
2021/10/14 09:07:18;;;;;;;;;;;11.00;99.90;;;10.34;69.64;96609.00;10564901;28;2147;-74
2021/10/14 09:12:21;;;;;;;;;;;11.00;99.90;;;10.73;67.27;96607.00;10573794;28;2055;-74
2021/10/14 09:17:24;;;;;;;;;;;11.30;99.90;;;10.49;68.22;96596.53;10565333;28;2479;-75
2021/10/14 09:22:27;;;;;;;;;;;11.40;99.90;;;10.50;67.01;96595.50;10569228;28;2019;-73
2021/10/14 09:27:30;;;;;;;;;;;11.40;99.90;;;10.52;67.35;96590.66;10570187;28;1995;-76
2021/10/14 09:32:33;;;;;;;;;;;11.40;99.90;;;10.80;66.04;96588.78;10575146;28;1960;-76
2021/10/14 09:37:36;;;;;;;;;;;11.60;99.90;;;11.58;64.62;96581.06;10579750;28;2011;-77
2021/10/14 09:42:39;;;;;;;;;;;11.90;99.90;;;11.02;62.51;96583.34;10572550;28;2114;-78
2021/10/14 09:47:42;;;;;;;;;;;12.00;99.90;;;11.32;62.89;96588.97;10567787;28;2094;-75
2021/10/14 09:52:44;;;;;;;;;;;11.80;99.90;;;11.15;61.51;96588.28;10550756;28;1948;-77
2021/10/14 09:57:47;;;;;;;;;;;12.00;99.90;;;11.22;61.02;96588.88;10571917;28;2047;-76
2021/10/14 10:02:50;;;;;;;;;;;12.00;99.90;;;11.27;62.18;96590.81;10569375;28;2071;-75
2021/10/14 10:07:53;;;;;;;;;;;12.00;99.90;;;10.89;61.87;96589.16;10581671;27;2102;-77
2021/10/14 10:12:56;;;;;;;;;;;11.90;99.90;;;11.19;62.77;96584.00;10565300;28;2030;-76
2021/10/14 10:17:59;;;;;;;;;;;12.00;99.90;;;11.44;61.89;96580.69;10574763;28;2107;-77
2021/10/14 10:23:02;;;;;;;;;;;12.10;99.90;;;11.43;62.23;96589.03;10572244;28;2019;-77
2021/10/14 10:28:07;;;;;;;;;;;12.30;99.90;;;11.60;63.35;96587.81;10568159;28;2057;-76
2021/10/14 10:33:29;;;;;;;;;;;12.30;99.90;;;11.93;59.31;96577.78;10568686;28;2023;-77
2021/10/14 10:38:34;;;;;;;;;;;12.40;99.90;;;11.29;60.74;96578.69;10568751;28;2121;-76
2021/10/14 10:43:37;;;;;;;;;;;12.30;99.90;;;11.30;60.87;96577.63;10565401;28;2047;-78
2021/10/14 10:48:40;;;;;;;;;;;12.20;99.90;;;11.55;61.59;96570.78;10572634;28;2262;-78
2021/10/14 10:53:44;;;;;;;;;;;12.20;99.90;;;11.57;60.75;96560.56;10568524;28;2015;-76
2021/10/14 10:58:47;;;;;;;;;;;12.30;99.90;;;12.00;60.34;96556.78;10570664;28;2091;-77
2021/10/14 11:03:51;;;;;;;;;;;12.60;99.90;;;11.65;59.76;96543.94;10568129;28;2110;-76
2021/10/14 11:08:54;;;;;;;;;;;12.60;99.90;;;11.85;60.38;96538.69;10568334;28;2039;-77
2021/10/14 11:13:57;;;;;;;;;;;12.70;99.90;;;12.42;56.57;96537.78;10571139;28;2047;-76
2021/10/14 11:19:01;;;;;;;;;;;12.90;99.90;;;12.72;56.34;96538.91;10551683;28;1983;-78
2021/10/14 11:24:17;;;;;;;;;;;13.00;99.90;;;12.78;55.33;96524.34;10577587;27;1924;-78
2021/10/14 11:29:22;;;;;;;;;;;13.30;99.90;;;12.06;56.61;96514.50;10579946;27;1996;-76
2021/10/14 11:34:25;;;;;;;;;;;13.00;99.90;;;12.10;57.02;96511.03;10575115;27;1935;-78
2021/10/14 11:39:28;;;;;;;;;;;13.00;99.90;;;12.01;58.22;96506.41;10583638;27;1400;-77
2021/10/14 11:44:31;;;;;;;;;;;12.90;99.90;;;12.38;57.32;96503.53;10602736;27;1961;-78
2021/10/14 11:49:34;;;;;;;;;;;13.00;99.90;;;12.61;56.30;96486.03;10621082;27;1882;-77
2021/10/14 11:54:36;;;;;;;;;;;13.40;99.90;;;13.12;53.73;96486.84;10623014;27;1894;-78
2021/10/14 11:59:39;;;;;;;;;;;13.70;99.90;;;13.03;51.71;96485.75;10617948;27;2035;-77
2021/10/14 12:04:43;;;;;;;;;;;13.80;99.90;;;13.40;51.74;96482.75;10597450;28;1934;-76
2021/10/14 12:09:46;;;;;;;;;;;13.80;99.90;;;13.35;52.31;96471.94;10591510;27;2358;-77
2021/10/14 12:14:49;;;;;;;;;;;14.10;99.90;;;13.51;50.96;96473.53;10592486;27;1855;-77
2021/10/14 12:19:52;;;;;;;;;;;14.20;99.90;;;13.27;51.37;96469.00;10560637;27;1986;-77
2021/10/14 12:24:55;;;;;;;;;;;14.20;99.90;;;13.37;50.54;96467.09;10563084;28;1930;-77
2021/10/14 12:29:58;;;;;;;;;;;14.20;99.90;;;12.96;51.43;96469.84;10606250;27;1890;-78
2021/10/14 12:35:01;;;;;;;;;;;13.90;99.90;;;12.89;52.57;96469.31;10613624;27;1926;-77
2021/10/14 12:40:04;;;;;;;;;;;13.80;99.90;;;12.92;52.40;96457.19;10583786;28;1929;-78
2021/10/14 12:45:12;;;;;;;;;;;13.80;99.90;;;12.89;51.66;96455.00;10590226;27;1305;-78
2021/10/14 12:50:18;;;;;;;;;;;13.70;99.90;;;12.98;53.06;96446.09;10592067;28;2209;-77
2021/10/14 12:55:25;;;;;;;;;;;13.70;99.90;;;13.21;53.28;96449.31;10589116;28;1851;-78
2021/10/14 13:00:29;;;;;;;;;;;13.90;99.90;;;13.18;51.11;96447.94;10586319;28;1890;-77
2021/10/14 13:05:31;;;;;;;;;;;14.20;99.90;;;13.34;49.31;96437.13;10559721;28;1929;-76
2021/10/14 13:10:34;;;;;;;;;;;14.30;99.90;;;13.63;49.05;96426.50;10579683;28;1986;-78
2021/10/14 13:15:37;;;;;;;;;;;14.30;99.90;;;12.84;50.76;96422.63;10561422;28;1950;-77
2021/10/14 13:20:40;;;;;;;;;;;14.00;99.90;;;12.76;50.37;96432.09;10571214;27;2108;-76
2021/10/14 13:25:45;;;;;;;;;;;13.70;99.90;;;13.01;51.74;96427.75;10575848;27;1883;-78
2021/10/14 13:30:48;;;;;;;;;;;13.80;99.90;;;13.30;49.51;96418.00;10576515;27;2010;-77
2021/10/14 13:35:51;;;;;;;;;;;14.00;99.90;;;13.03;50.38;96423.66;10557989;28;1999;-76
2021/10/14 13:40:56;;;;;;;;;;;14.00;99.90;;;12.77;51.32;96424.78;10576193;28;1929;-76
2021/10/14 13:45:59;;;;;;;;;;;13.90;99.90;;;12.54;51.10;96418.09;10577054;28;1858;-77
2021/10/14 13:51:02;;;;;;;;;;;13.60;99.90;;;12.35;51.60;96418.63;10583835;28;1950;-77
2021/10/14 13:56:05;;;;;;;;;;;13.40;99.90;;;12.26;52.02;96422.09;10566900;28;1898;-78
2021/10/14 14:01:08;;;;;;;;;;;13.20;99.90;;;12.24;51.23;96414.28;10568238;27;2007;-78
2021/10/14 14:06:32;;;;;;;;;;;13.20;99.90;;;12.04;52.49;96422.34;10570305;28;1993;-78
2021/10/14 14:11:36;;;;;;;;;;;13.00;99.90;;;12.11;53.01;96401.34;10552623;28;1964;-77
2021/10/14 14:16:38;;;;;;;;;;;13.00;99.90;;;11.87;54.22;96409.91;10547307;28;1935;-77
2021/10/14 14:21:42;;;;;;;;;;;12.90;99.90;;;12.17;53.81;96402.97;10568531;28;1854;-78
2021/10/14 14:26:45;;;;;;;;;;;13.00;99.90;;;12.35;53.43;96396.25;10570645;28;2188;-78
2021/10/14 14:31:48;;;;;;;;;;;13.10;99.90;;;12.20;53.71;96397.03;10582144;28;1997;-76
2021/10/14 14:36:50;;;;;;;;;;;13.20;99.90;;;12.65;53.72;96390.81;10574963;28;1918;-78
2021/10/14 14:41:53;;;;;;;;;;;13.30;99.90;;;12.66;53.50;96391.63;10550842;28;1847;-78
2021/10/14 14:46:57;;;;;;;;;;;13.40;99.90;;;12.44;53.90;96392.72;10569954;28;1859;-77
2021/10/14 14:52:00;;;;;;;;;;;13.40;99.90;;;12.53;53.89;96392.16;10548456;28;1987;-77
2021/10/14 14:57:03;;;;;;;;;;;13.30;99.90;;;12.38;55.62;96385.72;10577677;27;1970;-77
2021/10/14 15:02:06;;;;;;;;;;;13.40;99.90;;;12.30;54.63;96377.38;10578824;28;1720;-77
2021/10/14 15:07:09;;;;;;;;;;;13.30;99.90;;;12.27;54.89;96384.09;10579910;27;1864;-78
2021/10/14 15:12:12;;;;;;;;;;;13.30;99.90;;;12.13;54.89;96383.81;10559669;27;1914;-78
2021/10/14 15:17:14;;;;;;;;;;;13.10;99.90;;;12.00;56.19;96378.13;10559974;28;1890;-77
2021/10/14 15:22:17;;;;;;;;;;;13.00;99.90;;;12.00;55.25;96370.06;10573784;28;1834;-78
2021/10/14 15:27:23;;;;;;;;;;;13.00;99.90;;;11.93;55.65;96369.50;10578850;28;1890;-78
2021/10/14 15:32:26;;;;;;;;;;;12.90;99.90;;;11.61;57.13;96370.50;10572560;28;1975;-78
2021/10/14 15:37:29;;;;;;;;;;;12.80;99.90;;;11.49;56.88;96370.72;10568340;27;1966;-78
2021/10/14 15:42:32;;;;;;;;;;;12.70;99.90;;;11.48;57.68;96376.38;10560506;28;2026;-77
2021/10/14 15:47:35;;;;;;;;;;;12.50;99.90;;;11.24;58.60;96376.81;10576715;28;1956;-78
2021/10/14 15:52:38;;;;;;;;;;;12.40;99.90;;;11.10;59.17;96375.69;10575277;27;1816;-78
2021/10/14 15:57:41;;;;;;;;;;;12.20;99.90;;;11.01;59.96;96374.56;10578502;28;1954;-78
2021/10/14 16:02:47;;;;;;;;;;;12.30;99.90;;;10.98;61.27;96372.38;10569522;28;2131;-78
2021/10/14 16:07:50;;;;;;;;;;;12.10;99.90;;;10.88;62.11;96369.63;10575380;27;1919;-77
2021/10/14 16:12:53;;;;;;;;;;;12.00;99.90;;;10.71;62.71;96367.94;10574677;27;2033;-77
2021/10/14 16:17:56;;;;;;;;;;;11.90;99.90;;;10.70;62.99;96366.31;10570216;28;1927;-77
2021/10/14 16:23:00;;;;;;;;;;;11.80;99.90;;;10.64;63.43;96366.56;10560399;27;1915;-78
2021/10/14 16:28:03;;;;;;;;;;;11.70;99.90;;;10.60;63.50;96368.13;10560497;27;1970;-78
2021/10/14 16:38:23;;;;;;;;;;;11.60;99.90;;;10.39;65.93;96362.63;10539904;27;2345;-78
2021/10/14 16:43:28;;;;;;;;;;;11.50;99.90;;;10.29;66.88;96373.28;10584520;27;2014;-78
2021/10/14 16:48:30;;;;;;;;;;;11.50;99.90;;;10.19;67.25;96371.31;10582952;27;2019;-78
2021/10/14 16:53:33;;;;;;;;;;;11.40;99.90;;;10.03;68.46;96373.03;10578187;27;2003;-78
2021/10/14 16:58:38;;;;;;;;;;;11.30;99.90;;;9.89;68.83;96376.41;10592296;27;1894;-80
2021/10/14 17:03:41;;;;;;;;;;;11.20;99.90;;;9.67;72.52;96371.91;10575701;27;1874;-78
2021/10/14 17:08:45;;;;;;;;;;;11.00;99.90;;;9.57;72.53;96370.97;10582656;28;1914;-78
2021/10/14 17:13:49;;;;;;;;;;;10.80;99.90;;;9.58;73.93;96376.09;10564690;28;1866;-77
2021/10/14 17:18:58;;;;;;;;;;;10.80;99.90;;;9.61;73.61;96369.44;10562737;28;2016;-77
2021/10/14 17:40:03;;;;;;;;;;;10.80;99.90;;;9.58;76.55;96372.59;10580007;28;1902;-78
2021/10/14 17:45:12;;;;;;;;;;;10.70;99.90;;;9.58;76.63;96370.72;10588852;27;1796;-80
2021/10/14 17:50:15;;;;;;;;;;;10.70;99.90;;;9.44;75.59;96369.50;10554426;28;1970;-77
2021/10/14 17:55:18;;;;;;;;;;;10.60;99.90;;;9.37;78.17;96364.34;10583721;28;1946;-78
2021/10/14 18:00:22;;;;;;;;;;;10.60;99.90;;;9.30;78.58;96370.97;10566343;28;2008;-78
2021/10/14 18:05:48;;;;;;;;;;;10.50;99.90;;;9.25;79.63;96371.69;10588034;28;1894;-79
2021/10/14 18:42:50;;;;;;;;;;;10.30;99.90;;;9.04;81.82;96330.41;10580824;28;1442;-78
2021/10/14 18:47:54;;;;;;;;;;;10.20;99.90;;;9.05;82.72;96334.72;10583399;28;2328;-79
2021/10/14 18:52:57;;;;;;;;;;;10.20;99.90;;;8.99;83.05;96326.88;10568392;28;1979;-78
2021/10/14 18:58:01;;;;;;;;;;;10.10;99.90;;;8.89;81.04;96325.66;10582819;28;1878;-79
2021/10/14 19:03:07;;;;;;;;;;;10.10;99.90;;;8.93;84.12;96320.63;10570572;28;1862;-77
2021/10/14 19:08:19;;;;;;;;;;;10.00;99.90;;;8.99;83.92;96316.94;10564364;28;1957;-76
2021/10/14 19:13:30;;;;;;;;;;;10.10;99.90;;;9.06;82.67;96316.75;10571134;28;2235;-75
2021/10/14 19:18:43;;;;;;;;;;;10.10;99.90;;;9.12;83.61;96313.06;10574778;28;2267;-78
2021/10/14 20:22:55;;;;;;;;;;;10.20;99.90;;;8.90;85.98;96284.38;10585930;27;1949;-77
2021/10/14 20:27:58;;;;;;;;;;;10.10;99.90;;;8.82;85.16;96276.78;10557400;27;1839;-78
2021/10/14 20:33:01;;;;;;;;;;;10.00;99.90;;;8.78;86.17;96280.22;10586917;27;1970;-79
2021/10/14 20:38:04;;;;;;;;;;;10.00;99.90;;;8.61;86.60;96277.59;10566468;27;1907;-79
2021/10/14 20:43:07;;;;;;;;;;;9.90;99.90;;;8.48;86.81;96270.75;10585098;27;1933;-79
2021/10/14 20:48:30;;;;;;;;;;;9.70;99.90;;;8.39;86.18;96274.88;10578229;27;1882;-79
2021/10/14 20:53:39;;;;;;;;;;;9.70;99.90;;;8.27;86.77;96268.78;10568505;27;1958;-77
2021/10/14 21:04:02;;;;;;;;;;;9.40;99.90;;;8.03;89.59;96262.84;10588396;27;1878;-77
2021/10/14 21:09:05;;;;;;;;;;;9.30;99.90;;;7.82;90.80;96261.69;10593389;27;1984;-80
2021/10/14 21:14:24;;;;;;;;;;;9.20;99.90;;;7.63;92.25;96250.44;10569499;27;1944;-79
2021/10/14 21:19:27;;;;;;;;;;;9.00;99.90;;;7.53;92.78;96244.94;10570985;28;1918;-78
2021/10/14 21:24:30;;;;;;;;;;;8.90;99.90;;;7.33;92.81;96245.41;10585658;27;1926;-78
2021/10/14 21:29:37;;;;;;;;;;;8.70;99.90;;;7.16;93.18;96247.22;10578598;27;2020;-80
2021/10/14 21:40:00;;;;;;;;;;;8.40;99.90;;;6.90;96.90;96244.09;10581867;27;1965;-78
2021/10/14 21:45:04;;;;;;;;;;;8.30;99.90;;;6.83;97.72;96242.63;10584196;27;1870;-81
2021/10/14 21:50:07;;;;;;;;;;;8.20;99.90;;;6.73;98.71;96244.03;10562259;27;1946;-79
2021/10/14 21:55:09;;;;;;;;;;;8.10;99.90;;;6.72;98.54;96241.59;10577460;27;2033;-81
2021/10/14 22:00:17;;;;;;;;;;;8.10;99.90;;;6.66;98.67;96237.19;10554898;27;1837;-78
2021/10/14 22:05:20;;;;;;;;;;;8.00;99.90;;;6.56;99.45;96245.03;10571335;28;1912;-78
2021/10/14 22:10:25;;;;;;;;;;;7.90;99.90;;;6.53;100.00;96232.94;10553714;28;1902;-78
2021/10/14 22:15:28;;;;;;;;;;;7.80;99.90;;;6.46;100.00;96241.09;10565012;28;1914;-78
2021/10/14 22:20:30;;;;;;;;;;;7.80;99.90;;;6.41;100.00;96234.81;10568421;27;1925;-78
2021/10/14 22:25:33;;;;;;;;;;;7.80;99.90;;;6.39;100.00;96224.38;10571989;28;1847;-80
2021/10/14 22:30:36;;;;;;;;;;;7.70;99.90;;;6.34;100.00;96218.94;10584289;28;1977;-78
2021/10/14 22:35:39;;;;;;;;;;;7.70;99.90;;;6.27;100.00;96215.59;10577050;28;1882;-79
2021/10/14 22:40:42;;;;;;;;;;;7.60;99.90;;;6.20;100.00;96198.91;10582864;28;1851;-79
2021/10/14 22:45:45;;;;;;;;;;;7.50;99.90;;;6.18;100.00;96198.31;10577237;28;1764;-79
2021/10/14 22:50:48;;;;;;;;;;;7.50;99.90;;;6.07;100.00;96189.28;10559699;28;1955;-79
2021/10/14 22:55:51;;;;;;;;;;;7.40;99.90;;;6.10;100.00;96179.97;10580178;28;1882;-79
2021/10/14 23:00:54;;;;;;;;;;;7.40;99.90;;;6.01;100.00;96171.53;10561116;28;1875;-77
2021/10/14 23:05:57;;;;;;;;;;;7.40;99.90;;;5.97;100.00;96173.84;10573798;28;1932;-79
2021/10/14 23:11:00;;;;;;;;;;;7.30;99.90;;;5.87;100.00;96178.97;10577530;28;1992;-79
2021/10/14 23:16:02;;;;;;;;;;;7.20;99.90;;;5.90;100.00;96169.66;10585492;28;1989;-78
2021/10/14 23:21:05;;;;;;;;;;;7.20;99.90;;;5.85;100.00;96162.38;10582561;27;1863;-78
2021/10/14 23:26:08;;;;;;;;;;;7.10;99.90;;;5.76;100.00;96157.63;10587241;27;1940;-78
2021/10/14 23:31:11;;;;;;;;;;;7.10;99.90;;;5.65;100.00;96145.91;10595794;27;1909;-77
2021/10/14 23:36:14;;;;;;;;;;;7.00;99.90;;;5.68;100.00;96145.47;10574466;27;1414;-78
2021/10/14 23:41:17;;;;;;;;;;;7.00;99.90;;;5.68;100.00;96140.13;10613251;27;1757;-78
2021/10/14 23:46:20;;;;;;;;;;;7.00;99.90;;;5.60;100.00;96137.81;10628612;27;1780;-78
2021/10/14 23:51:23;;;;;;;;;;;6.90;99.90;;;5.53;100.00;96139.78;10609431;27;1898;-78
2021/10/14 23:56:26;;;;;;;;;;;6.90;99.90;;;5.44;100.00;96123.31;10635772;27;1783;-78
